createdAt,value
2022-08-19T00:01:52.693Z,97779.53
2022-08-19T00:04:28.109Z,97787.75
2022-08-19T00:06:55.313Z,97799.16
2022-08-19T00:09:29.091Z,97805.63
2022-08-19T00:11:56.645Z,97819.97
2022-08-19T00:14:31.104Z,97808.44
2022-08-19T00:17:11.155Z,97806.31
2022-08-19T00:19:38.362Z,97815.25
2022-08-19T00:22:06.239Z,97827.09
2022-08-19T00:24:40.077Z,97828.06
2022-08-19T00:27:26.254Z,97828.66
2022-08-19T00:30:00.081Z,97821.63
2022-08-19T00:32:33.114Z,97834.97
2022-08-19T00:35:08.088Z,97842.13
2022-08-19T00:37:36.007Z,97846.72
2022-08-19T00:40:10.153Z,97849.41
2022-08-19T00:42:36.929Z,97841.41
2022-08-19T00:45:16.098Z,97847.53
2022-08-19T00:47:42.745Z,97841.31
2022-08-19T00:50:16.248Z,97849.53
2022-08-19T00:52:46.557Z,97842.97
2022-08-19T00:55:32.082Z,97854.22
2022-08-19T00:58:07.942Z,97862.53
2022-08-19T01:00:44.254Z,97866.28
2022-08-19T01:03:12.172Z,97875.06
2022-08-19T01:05:47.091Z,97874.44
2022-08-19T01:08:23.069Z,97874.56
2022-08-19T01:10:53.109Z,97897.66
2022-08-19T01:13:48.929Z,97893.91
2022-08-19T01:16:24.923Z,97870.44
2022-08-19T01:18:58.479Z,97869.41
2022-08-19T01:21:45.488Z,97852.66
2022-08-19T01:24:12.279Z,97850.31
2022-08-19T01:26:47.079Z,97846.31
2022-08-19T01:29:13.877Z,97851.56
2022-08-19T01:31:48.168Z,97856.16
2022-08-19T01:34:14.762Z,97856.50
2022-08-19T01:36:50.093Z,97850.09
2022-08-19T01:39:22.508Z,97840.34
2022-08-19T01:41:56.047Z,97851.56
2022-08-19T01:44:25.042Z,97851.84
2022-08-19T01:46:59.062Z,97851.00
2022-08-19T01:49:34.104Z,97859.66
2022-08-19T01:52:01.230Z,97856.50
2022-08-19T01:54:35.077Z,97857.69
2022-08-19T01:57:11.086Z,97863.56
2022-08-19T01:59:38.223Z,97862.50
2022-08-19T02:02:17.130Z,97846.34
2022-08-19T02:04:43.662Z,97839.88
2022-08-19T02:07:17.077Z,97834.94
2022-08-19T02:10:09.395Z,97825.47
2022-08-19T02:12:59.084Z,97811.16
2022-08-19T02:15:33.276Z,97799.09
2022-08-19T02:18:07.058Z,97787.72
2022-08-19T02:20:33.817Z,97788.75
2022-08-19T02:23:13.618Z,97798.38
2022-08-19T02:25:41.003Z,97796.50
2022-08-19T02:28:18.387Z,97786.06
2022-08-19T02:30:46.170Z,97795.47
2022-08-19T02:33:19.053Z,97820.66
2022-08-19T02:35:46.247Z,97852.72
2022-08-19T02:38:35.227Z,97860.66
2022-08-19T02:41:04.420Z,97844.06
2022-08-19T02:43:39.080Z,97837.38
2022-08-19T02:46:13.404Z,97838.78
2022-08-19T02:48:47.126Z,97854.84
2022-08-19T02:51:17.309Z,97865.59
2022-08-19T02:53:51.095Z,97865.59
2022-08-19T02:56:18.558Z,97849.09
2022-08-19T02:58:52.051Z,97836.34
2022-08-19T03:01:27.183Z,97834.72
2022-08-19T03:04:01.057Z,97840.41
2022-08-19T03:06:27.693Z,97853.50
2022-08-19T03:09:01.067Z,97876.50
2022-08-19T03:11:31.985Z,97894.50
2022-08-19T03:14:14.075Z,97898.97
2022-08-19T03:16:48.348Z,97894.28
2022-08-19T03:19:23.048Z,97905.66
2022-08-19T03:21:50.140Z,97902.69
2022-08-19T03:24:25.057Z,97902.94
2022-08-19T03:27:03.078Z,97883.53
2022-08-19T03:29:32.691Z,97883.09
2022-08-19T03:32:19.845Z,97888.72
2022-08-19T03:35:04.192Z,97896.78
2022-08-19T03:37:37.045Z,97897.03
2022-08-19T03:40:14.439Z,97902.88
2022-08-19T03:42:48.920Z,97901.22
2022-08-19T03:45:23.033Z,97899.13
2022-08-19T03:47:56.382Z,97894.00
2022-08-19T03:50:22.932Z,97899.41
2022-08-19T03:52:58.077Z,97904.50
2022-08-19T03:55:31.066Z,97912.00
2022-08-19T03:58:04.060Z,97909.47
2022-08-19T04:00:38.365Z,97924.44
2022-08-19T04:03:11.058Z,97908.97
2022-08-19T04:05:38.967Z,97929.06
2022-08-19T04:08:14.032Z,97925.44
2022-08-19T04:10:41.660Z,97928.72
2022-08-19T04:13:16.060Z,97949.69
2022-08-19T04:15:56.054Z,97957.31
2022-08-19T04:18:22.673Z,97975.06
2022-08-19T04:20:56.044Z,98000.44
2022-08-19T04:23:22.757Z,98009.41
2022-08-19T04:25:56.046Z,98036.75
2022-08-19T04:28:22.703Z,98040.66
2022-08-19T04:30:57.031Z,98036.66
2022-08-19T04:33:26.687Z,98040.34
2022-08-19T04:36:02.042Z,98039.00
2022-08-19T04:38:29.001Z,98039.72
2022-08-19T04:41:21.237Z,98032.56
2022-08-19T04:43:56.042Z,98025.16
2022-08-19T04:46:40.539Z,98036.75
2022-08-19T04:49:16.051Z,98045.34
2022-08-19T04:51:50.078Z,98046.63
2022-08-19T04:54:31.008Z,98043.41
2022-08-19T04:57:14.037Z,98040.03
2022-08-19T04:59:47.030Z,98043.66
2022-08-19T05:02:13.613Z,98042.22
2022-08-19T05:04:47.062Z,98028.53
2022-08-19T05:07:20.050Z,98016.34
2022-08-19T05:09:58.966Z,98019.84
2022-08-19T05:12:29.003Z,98012.56
2022-08-19T05:15:04.053Z,98004.47
2022-08-19T05:17:44.069Z,98008.50
2022-08-19T05:20:30.031Z,98008.88
2022-08-19T05:23:03.056Z,98017.78
2022-08-19T05:25:52.228Z,98022.25
2022-08-19T05:28:26.048Z,98043.41
2022-08-19T05:30:52.979Z,98067.81
2022-08-19T05:33:19.856Z,98060.16
2022-08-19T05:35:54.028Z,98050.50
2022-08-19T05:38:21.055Z,98034.09
2022-08-19T05:40:56.031Z,98026.84
2022-08-19T05:43:29.028Z,98028.63
2022-08-19T05:46:03.038Z,98020.78
2022-08-19T05:48:29.984Z,98011.88
2022-08-19T05:51:04.050Z,98002.50
2022-08-19T05:53:30.741Z,98002.50
2022-08-19T05:56:04.016Z,98011.06
2022-08-19T05:58:30.663Z,98016.19
2022-08-19T06:01:04.034Z,98012.91
2022-08-19T06:03:30.895Z,98006.84
2022-08-19T06:06:07.061Z,97993.16
2022-08-19T06:08:41.189Z,97988.47
2022-08-19T06:11:20.043Z,97971.41
2022-08-19T06:14:08.012Z,97961.63
2022-08-19T06:16:36.197Z,97965.16
2022-08-19T06:19:11.045Z,97969.97
2022-08-19T06:21:39.019Z,97973.25
2022-08-19T06:24:14.037Z,97960.94
2022-08-19T06:26:43.263Z,97975.00
2022-08-19T06:29:23.786Z,97972.44
2022-08-19T06:31:52.250Z,97971.25
2022-08-19T06:34:26.016Z,97978.19
2022-08-19T06:36:53.191Z,97989.66
2022-08-19T06:39:29.059Z,98007.72
2022-08-19T06:42:04.172Z,98001.66
2022-08-19T06:44:35.335Z,98004.81
2022-08-19T06:47:23.130Z,98023.25
2022-08-19T06:49:51.548Z,98040.03
2022-08-19T06:52:25.052Z,98047.41
2022-08-19T06:54:55.723Z,98043.56
2022-08-19T06:57:31.225Z,98028.91
2022-08-19T06:59:57.766Z,98029.38
2022-08-19T07:02:27.393Z,98024.94
2022-08-19T07:05:01.280Z,98012.75
2022-08-19T07:07:27.904Z,98027.66
2022-08-19T07:10:03.698Z,98015.34
2022-08-19T07:12:36.134Z,98022.63
2022-08-19T07:15:16.044Z,98027.78
2022-08-19T07:17:44.374Z,98033.03
2022-08-19T07:20:18.516Z,98015.78
2022-08-19T07:22:46.467Z,98009.44
2022-08-19T07:25:21.115Z,98013.19
2022-08-19T07:27:59.522Z,98017.31
2022-08-19T07:30:35.033Z,98012.59
2022-08-19T07:33:08.045Z,98015.88
2022-08-19T07:35:34.885Z,98009.22
2022-08-19T07:38:10.055Z,98009.56
2022-08-19T07:40:36.695Z,98002.63
2022-08-19T07:43:13.618Z,98001.44
2022-08-19T07:45:40.956Z,97994.34
2022-08-19T07:48:14.077Z,97985.75
2022-08-19T07:50:47.026Z,97990.06
2022-08-19T07:53:15.013Z,97978.56
2022-08-19T07:55:48.249Z,97960.56
2022-08-19T07:58:23.071Z,97955.66
2022-08-19T08:00:57.043Z,97956.69
2022-08-19T08:03:46.485Z,97956.88
2022-08-19T08:06:39.192Z,97952.56
2022-08-19T08:09:12.342Z,97957.50
2022-08-19T08:11:38.898Z,97951.63
2022-08-19T08:14:29.601Z,97953.94
2022-08-19T08:17:13.046Z,97955.25
2022-08-19T08:19:42.043Z,97959.03
2022-08-19T08:22:16.068Z,97950.22
2022-08-19T08:24:49.013Z,97938.81
2022-08-19T08:27:26.367Z,97924.41
2022-08-19T08:30:00.024Z,97924.38
2022-08-19T08:32:31.202Z,97921.06
2022-08-19T08:35:05.014Z,97920.78
2022-08-19T08:37:38.011Z,97911.94
2022-08-19T08:40:15.111Z,97902.41
2022-08-19T08:42:47.046Z,97903.81
2022-08-19T08:45:23.059Z,97891.09
2022-08-19T08:47:53.200Z,97881.91
2022-08-19T08:50:30.234Z,97879.19
2022-08-19T08:52:58.131Z,97895.31
2022-08-19T08:55:36.939Z,97882.44
2022-08-19T08:58:12.996Z,97884.78
2022-08-19T09:00:48.018Z,97885.09
2022-08-19T09:03:32.053Z,97886.72
2022-08-19T09:06:12.261Z,97894.41
2022-08-19T09:08:45.181Z,97892.34
2022-08-19T09:11:42.843Z,97892.34
2022-08-19T09:14:51.843Z,97899.97
2022-08-19T09:17:19.802Z,97895.44
2022-08-19T09:20:01.598Z,97894.03
2022-08-19T09:22:28.401Z,97897.81
2022-08-19T09:25:02.033Z,97897.59
2022-08-19T09:27:41.731Z,97896.50
2022-08-19T09:30:19.010Z,97899.59
2022-08-19T09:32:46.372Z,97904.78
2022-08-19T09:35:20.016Z,97903.50
2022-08-19T09:37:46.564Z,97903.91
2022-08-19T09:40:20.155Z,97910.19
2022-08-19T09:42:49.752Z,97908.69
2022-08-19T09:45:25.022Z,97915.72
2022-08-19T09:47:54.303Z,97927.66
2022-08-19T09:50:28.979Z,97929.16
2022-08-19T09:53:02.011Z,97923.84
2022-08-19T09:55:34.993Z,97926.84
2022-08-19T09:58:02.140Z,97926.78
2022-08-19T10:00:36.018Z,97935.69
2022-08-19T10:03:02.636Z,97944.16
2022-08-19T10:05:55.406Z,97934.84
2022-08-19T10:08:23.895Z,97921.34
2022-08-19T10:11:00.025Z,97900.53
2022-08-19T10:13:53.997Z,97898.25
2022-08-19T10:16:39.733Z,97913.00
2022-08-19T10:19:06.590Z,97913.09
2022-08-19T10:21:42.024Z,97904.44
2022-08-19T10:24:09.720Z,97905.06
2022-08-19T10:26:45.009Z,97907.06
2022-08-19T10:29:13.547Z,97886.00
2022-08-19T10:32:09.391Z,97876.31
2022-08-19T10:34:37.837Z,97859.53
2022-08-19T10:37:28.822Z,97854.97
2022-08-19T10:40:05.061Z,97849.84
2022-08-19T10:42:32.320Z,97847.75
2022-08-19T10:45:06.008Z,97841.13
2022-08-19T10:47:33.956Z,97829.50
2022-08-19T10:50:28.683Z,97821.38
2022-08-19T10:52:56.548Z,97819.69
2022-08-19T10:55:48.999Z,97821.31
2022-08-19T10:58:16.765Z,97816.94
2022-08-19T11:00:50.998Z,97811.00
2022-08-19T11:03:23.991Z,97814.06
2022-08-19T11:06:11.010Z,97814.38
2022-08-19T11:08:38.764Z,97826.34
2022-08-19T11:11:13.005Z,97827.16
2022-08-19T11:13:46.991Z,97834.50
2022-08-19T11:16:22.560Z,97829.63
2022-08-19T11:18:57.994Z,97823.66
2022-08-19T11:21:31.489Z,97806.00
2022-08-19T11:24:05.980Z,97805.72
2022-08-19T11:26:33.770Z,97814.44
2022-08-19T11:29:07.995Z,97818.81
2022-08-19T11:31:43.997Z,97817.75
2022-08-19T11:34:12.943Z,97815.88
2022-08-19T11:36:48.082Z,97805.25
2022-08-19T11:39:16.272Z,97806.63
2022-08-19T11:41:51.003Z,97812.34
2022-08-19T11:44:17.892Z,97817.25
2022-08-19T11:46:53.998Z,97820.50
2022-08-19T11:49:20.929Z,97815.59
2022-08-19T11:51:54.985Z,97818.59
2022-08-19T11:54:27.986Z,97827.03
2022-08-19T11:57:01.177Z,97818.06
2022-08-19T11:59:37.060Z,97817.78
2022-08-19T12:02:12.281Z,97823.75
2022-08-19T12:04:38.816Z,97825.38
2022-08-19T12:07:11.979Z,97825.38
2022-08-19T12:09:42.865Z,97814.25
2022-08-19T12:12:16.014Z,97806.63
2022-08-19T12:14:49.746Z,97800.09
2022-08-19T12:17:22.976Z,97794.09
2022-08-19T12:19:49.686Z,97795.47
2022-08-19T12:22:23.009Z,97780.78
2022-08-19T12:24:51.883Z,97775.31
2022-08-19T12:27:40.532Z,97757.66
2022-08-19T12:30:16.009Z,97761.19
2022-08-19T12:32:48.988Z,97764.72
2022-08-19T12:35:15.514Z,97772.91
2022-08-19T12:37:56.806Z,97785.66
2022-08-19T12:40:24.387Z,97799.03
2022-08-19T12:43:00.008Z,97796.56
2022-08-19T12:45:26.513Z,97786.22
2022-08-19T12:48:01.007Z,97775.34
2022-08-19T12:50:31.596Z,97773.16
2022-08-19T12:52:59.053Z,97777.53
2022-08-19T12:55:33.027Z,97784.56
2022-08-19T12:58:02.424Z,97792.19
2022-08-19T13:00:36.043Z,97775.31
2022-08-19T13:03:03.039Z,97772.31
2022-08-19T13:05:36.984Z,97755.56
2022-08-19T13:08:09.993Z,97754.53
2022-08-19T13:10:43.982Z,97765.56
2022-08-19T13:13:17.991Z,97769.38
2022-08-19T13:15:52.994Z,97770.44
2022-08-19T13:18:26.489Z,97783.00
2022-08-19T13:21:00.988Z,97784.81
2022-08-19T13:23:27.531Z,97776.88
2022-08-19T13:26:04.995Z,97767.41
2022-08-19T13:28:59.066Z,97759.84
2022-08-19T13:31:45.873Z,97761.34
2022-08-19T13:34:19.015Z,97773.34
2022-08-19T13:36:45.861Z,97766.34
2022-08-19T13:39:19.997Z,97767.81
2022-08-19T13:41:56.999Z,97755.84
2022-08-19T13:44:32.008Z,97748.66
2022-08-19T13:47:12.985Z,97746.88
2022-08-19T13:49:39.485Z,97733.97
2022-08-19T13:52:13.013Z,97730.59
2022-08-19T13:54:39.546Z,97729.84
2022-08-19T13:57:12.983Z,97716.41
2022-08-19T13:59:39.482Z,97716.66
2022-08-19T14:02:06.504Z,97731.72
2022-08-19T14:04:39.981Z,97724.94
2022-08-19T14:07:12.985Z,97719.44
2022-08-19T14:09:39.502Z,97710.03
2022-08-19T14:12:12.988Z,97710.41
2022-08-19T14:14:47.123Z,97707.75
2022-08-19T14:17:26.987Z,97698.13
2022-08-19T14:20:10.776Z,97699.47
2022-08-19T14:22:45.181Z,97703.59
2022-08-19T14:25:13.347Z,97706.53
2022-08-19T14:27:46.997Z,97692.41
2022-08-19T14:30:15.366Z,97694.16
2022-08-19T14:32:51.069Z,97690.53
2022-08-19T14:35:17.840Z,97695.00
2022-08-19T14:37:53.004Z,97709.06
2022-08-19T14:40:23.804Z,97710.50
2022-08-19T14:42:56.979Z,97714.09
2022-08-19T14:45:23.556Z,97718.59
2022-08-19T14:47:53.644Z,97720.06
2022-08-19T14:50:27.159Z,97709.22
2022-08-19T14:52:59.689Z,97711.13
2022-08-19T14:55:32.973Z,97698.38
2022-08-19T14:57:59.815Z,97700.00
2022-08-19T15:00:34.981Z,97703.31
2022-08-19T15:03:03.620Z,97692.66
2022-08-19T15:05:36.985Z,97691.34
2022-08-19T15:08:10.989Z,97687.16
2022-08-19T15:10:46.988Z,97686.88
2022-08-19T15:13:13.596Z,97694.44
2022-08-19T15:15:55.383Z,97704.63
2022-08-19T15:18:22.763Z,97711.97
2022-08-19T15:20:56.014Z,97742.00
2022-08-19T15:23:29.051Z,97763.38
2022-08-19T15:26:02.998Z,97784.00
2022-08-19T15:28:31.107Z,97823.59
2022-08-19T15:31:04.135Z,97819.03
2022-08-19T15:33:37.304Z,97854.91
2022-08-19T15:36:12.988Z,97904.69
2022-08-19T15:38:46.118Z,97966.50
2022-08-19T15:41:29.988Z,98037.28
2022-08-19T15:44:05.875Z,98042.81
2022-08-19T15:46:40.080Z,98060.47
2022-08-19T15:49:07.042Z,98064.19
2022-08-19T15:51:45.973Z,98067.31
2022-08-19T15:54:19.975Z,98070.44
2022-08-19T15:57:05.872Z,98078.88
2022-08-19T16:00:01.548Z,98075.59
2022-08-19T16:02:55.044Z,98072.91
2022-08-19T16:05:47.989Z,98070.84
2022-08-19T16:08:15.520Z,98075.78
2022-08-19T16:10:49.047Z,98075.41
2022-08-19T16:13:15.660Z,98081.59
2022-08-19T16:15:56.002Z,98083.00
2022-08-19T16:18:29.760Z,98096.44
2022-08-19T16:21:03.373Z,98097.66
2022-08-19T16:23:29.913Z,98083.16
2022-08-19T16:26:02.979Z,98070.72
2022-08-19T16:28:29.520Z,98062.34
2022-08-19T16:31:03.093Z,98055.28
2022-08-19T16:33:36.945Z,98067.22
2022-08-19T16:36:07.358Z,98072.59
2022-08-19T16:38:42.052Z,98061.38
2022-08-19T16:41:16.012Z,98050.63
2022-08-19T16:43:48.972Z,98046.06
2022-08-19T16:46:18.573Z,98027.44
2022-08-19T16:48:51.972Z,98004.47
2022-08-19T16:51:18.881Z,98006.69
2022-08-19T16:53:51.984Z,98060.72
2022-08-19T16:56:25.970Z,98085.16
2022-08-19T16:58:52.695Z,98082.91
2022-08-19T17:01:27.041Z,98062.22
2022-08-19T17:03:55.003Z,98056.97
2022-08-19T17:06:32.940Z,98040.19
2022-08-19T17:09:01.113Z,98039.47
2022-08-19T17:11:35.950Z,98038.03
2022-08-19T17:14:04.441Z,98052.53
2022-08-19T17:16:43.961Z,98047.78
2022-08-19T17:19:17.343Z,98038.22
2022-08-19T17:21:50.991Z,98056.16
2022-08-19T17:24:17.664Z,98067.72
2022-08-19T17:26:50.999Z,98076.81
2022-08-19T17:29:17.539Z,98080.81
2022-08-19T17:31:50.962Z,98088.88
2022-08-19T17:34:17.532Z,98104.59
2022-08-19T17:36:50.964Z,98106.56
2022-08-19T17:39:17.945Z,98108.06
2022-08-19T17:41:50.954Z,98106.84
2022-08-19T17:44:19.015Z,98103.16
2022-08-19T17:46:53.082Z,98103.16
2022-08-19T17:49:19.963Z,98094.03
2022-08-19T17:51:53.947Z,98094.66
2022-08-19T17:54:20.623Z,98105.84
2022-08-19T17:56:54.146Z,98113.91
2022-08-19T17:59:28.495Z,98117.03
2022-08-19T18:01:58.015Z,98121.00
2022-08-19T18:04:31.961Z,98125.16
2022-08-19T18:07:04.964Z,98147.63
2022-08-19T18:09:41.758Z,98148.84
2022-08-19T18:12:16.944Z,98157.44
2022-08-19T18:15:03.954Z,98157.19
2022-08-19T18:17:37.929Z,98148.09
2022-08-19T18:20:12.144Z,98155.44
2022-08-19T18:22:46.960Z,98150.88
2022-08-19T18:25:19.328Z,98152.28
2022-08-19T18:27:52.986Z,98184.78
2022-08-19T18:30:20.390Z,98191.22
2022-08-19T18:32:56.028Z,98208.22
2022-08-19T18:35:26.225Z,98208.63
2022-08-19T18:37:52.773Z,98209.03
2022-08-19T18:40:46.963Z,98235.06
2022-08-19T18:43:22.960Z,98235.06
2022-08-19T18:46:08.419Z,98242.13
2022-08-19T18:49:00.943Z,98254.31
2022-08-19T18:51:30.690Z,98257.56
2022-08-19T18:54:04.963Z,98244.94
2022-08-19T18:56:35.672Z,98252.78
2022-08-19T18:59:02.333Z,98251.75
2022-08-19T19:01:37.040Z,98259.41
2022-08-19T19:04:05.062Z,98256.31
2022-08-19T19:06:41.941Z,98247.38
2022-08-19T19:09:09.776Z,98264.34
2022-08-19T19:11:45.159Z,98273.84
2022-08-19T19:14:23.173Z,98281.47
2022-08-19T19:17:14.953Z,98269.44
2022-08-19T19:19:43.013Z,98272.13
2022-08-19T19:22:18.108Z,98260.94
2022-08-19T19:24:44.856Z,98265.88
2022-08-19T19:27:20.091Z,98259.88
2022-08-19T19:29:51.684Z,98260.50
2022-08-19T19:32:26.996Z,98262.16
2022-08-19T19:34:54.028Z,98260.09
2022-08-19T19:37:28.016Z,98262.16
2022-08-19T19:39:54.619Z,98260.91
2022-08-19T19:42:30.009Z,98260.09
2022-08-19T19:44:56.785Z,98254.31
2022-08-19T19:47:30.941Z,98254.31
2022-08-19T19:50:14.248Z,98246.69
2022-08-19T19:52:51.010Z,98248.72
2022-08-19T19:55:21.041Z,98260.50
2022-08-19T19:57:55.119Z,98250.59
2022-08-19T20:00:29.124Z,98251.44
2022-08-19T20:03:02.099Z,98247.69
2022-08-19T20:05:35.101Z,98229.88
2022-08-19T20:08:38.094Z,98236.34
2022-08-19T20:11:05.984Z,98236.94
2022-08-19T20:13:40.016Z,98234.03
2022-08-19T20:16:14.085Z,98234.44
2022-08-19T20:18:55.750Z,98256.56
2022-08-19T20:21:24.647Z,98259.81
2022-08-19T20:24:08.766Z,98264.81
2022-08-19T20:26:36.305Z,98283.41
2022-08-19T20:29:13.809Z,98311.13
2022-08-19T20:31:57.758Z,98327.66
2022-08-19T20:34:31.919Z,98336.13
2022-08-19T20:36:58.460Z,98341.69
2022-08-19T20:39:25.168Z,98346.25
2022-08-19T20:41:58.102Z,98351.63
2022-08-19T20:44:25.492Z,98358.69
2022-08-19T20:47:03.387Z,98352.91
2022-08-19T20:49:30.825Z,98344.84
2022-08-19T20:52:04.937Z,98349.56
2022-08-19T20:54:31.968Z,98346.41
2022-08-19T20:56:58.931Z,98358.59
2022-08-19T20:59:32.930Z,98370.84
2022-08-19T21:01:59.671Z,98374.75
2022-08-19T21:04:32.934Z,98375.34
2022-08-19T21:06:59.656Z,98377.88
2022-08-19T21:09:26.167Z,98372.50
2022-08-19T21:11:59.920Z,98368.13
2022-08-19T21:14:26.479Z,98364.78
2022-08-19T21:16:59.928Z,98363.56
2022-08-19T21:19:33.228Z,98358.59
2022-08-19T21:22:06.957Z,98364.78
2022-08-19T21:24:33.559Z,98364.34
2022-08-19T21:27:06.907Z,98368.03
2022-08-19T21:29:36.786Z,98366.56
2022-08-19T21:32:10.909Z,98353.13
2022-08-19T21:34:40.881Z,98359.31
2022-08-19T21:37:24.741Z,98358.44
2022-08-19T21:39:58.137Z,98370.06
2022-08-19T21:42:31.941Z,98373.63
2022-08-19T21:44:58.609Z,98361.81
2022-08-19T21:47:31.927Z,98364.72
2022-08-19T21:49:58.508Z,98368.03
2022-08-19T21:52:32.925Z,98362.63
2022-08-19T21:55:05.925Z,98368.03
2022-08-19T21:57:41.415Z,98365.94
2022-08-19T22:00:12.965Z,98359.34
2022-08-19T22:02:46.937Z,98352.66
2022-08-19T22:05:19.910Z,98331.09
2022-08-19T22:07:54.022Z,98315.34
2022-08-19T22:10:27.918Z,98317.47
2022-08-19T22:12:54.511Z,98309.41
2022-08-19T22:15:30.980Z,98299.31
2022-08-19T22:18:11.063Z,98294.94
2022-08-19T22:20:37.594Z,98281.75
2022-08-19T22:23:12.906Z,98284.03
2022-08-19T22:25:41.315Z,98291.09
2022-08-19T22:28:19.114Z,98292.72
2022-08-19T22:30:54.179Z,98297.38
2022-08-19T22:33:28.910Z,98300.06
2022-08-19T22:35:56.017Z,98303.19
2022-08-19T22:38:28.972Z,98289.97
2022-08-19T22:40:56.556Z,98292.91
2022-08-19T22:43:30.890Z,98286.31
2022-08-19T22:45:58.343Z,98288.22
2022-08-19T22:48:32.912Z,98288.00
2022-08-19T22:51:18.616Z,98287.19
2022-08-19T22:53:52.933Z,98285.16
2022-08-19T22:56:19.537Z,98279.97
2022-08-19T22:58:53.901Z,98269.88
2022-08-19T23:01:27.711Z,98268.84
2022-08-19T23:04:04.034Z,98277.94
2022-08-19T23:06:34.012Z,98281.69
2022-08-19T23:09:07.895Z,98281.25
2022-08-19T23:11:41.603Z,98295.09
2022-08-19T23:14:15.891Z,98275.22
2022-08-19T23:16:51.395Z,98274.78
2022-08-19T23:19:31.908Z,98275.59
2022-08-19T23:21:58.870Z,98280.97
2022-08-19T23:24:32.932Z,98284.72
2022-08-19T23:27:18.101Z,98290.53
2022-08-19T23:30:09.917Z,98301.25
2022-08-19T23:32:36.507Z,98302.88
2022-08-19T23:35:09.918Z,98298.38
2022-08-19T23:37:37.482Z,98291.06
2022-08-19T23:40:12.990Z,98290.06
2022-08-19T23:42:41.429Z,98285.53
2022-08-19T23:45:15.912Z,98289.03
2022-08-19T23:47:50.285Z,98280.75
2022-08-19T23:50:23.878Z,98283.03
2022-08-19T23:52:54.693Z,98276.84
2022-08-19T23:55:22.639Z,98276.41
2022-08-19T23:57:56.004Z,98272.25
